createdAt,value
2023-02-28T00:00:19.057Z,-0.23
2023-02-28T00:01:19.023Z,-0.26
2023-02-28T00:02:19.084Z,-0.29
2023-02-28T00:03:19.064Z,-0.31
2023-02-28T00:04:19.014Z,-0.37
2023-02-28T00:05:18.995Z,-0.39
2023-02-28T00:06:18.976Z,-0.39
2023-02-28T00:07:18.963Z,-0.40
2023-02-28T00:08:18.957Z,-0.40
2023-02-28T00:09:18.936Z,-0.46
2023-02-28T00:10:18.950Z,-0.49
2023-02-28T00:11:18.916Z,-0.54
2023-02-28T00:12:19.077Z,-0.55
2023-02-28T00:13:18.924Z,-0.60
2023-02-28T00:14:18.890Z,-0.62
2023-02-28T00:15:18.877Z,-0.67
2023-02-28T00:16:18.903Z,-0.73
2023-02-28T00:17:19.144Z,-0.76
2023-02-28T00:18:19.527Z,-0.79
2023-02-28T00:19:19.492Z,-0.82
2023-02-28T00:20:18.842Z,-0.86
2023-02-28T00:21:19.890Z,-0.89
2023-02-28T00:22:18.850Z,-0.92
2023-02-28T00:23:19.154Z,-0.94
2023-02-28T00:24:19.484Z,-0.97
2023-02-28T00:25:20.929Z,-1.01
2023-02-28T00:26:21.933Z,-1.02
2023-02-28T00:27:19.635Z,-1.01
2023-02-28T00:28:18.747Z,-1.04
2023-02-28T00:29:18.738Z,-1.01
2023-02-28T00:30:18.757Z,-1.02
2023-02-28T00:31:18.785Z,-1.09
2023-02-28T00:32:18.982Z,-1.10
2023-02-28T00:33:19.461Z,-1.09
2023-02-28T00:34:18.686Z,-1.07
2023-02-28T00:35:18.782Z,-1.09
2023-02-28T00:36:19.011Z,-1.12
2023-02-28T00:37:19.147Z,-1.09
2023-02-28T00:38:18.650Z,-1.12
2023-02-28T00:39:24.793Z,-1.13
2023-02-28T00:40:19.714Z,-1.16
2023-02-28T00:41:20.862Z,-1.19
2023-02-28T00:42:22.510Z,-1.19
2023-02-28T00:43:20.133Z,-1.16
2023-02-28T00:44:18.576Z,-1.13
2023-02-28T00:45:18.557Z,-1.13
2023-02-28T00:46:21.670Z,-1.10
2023-02-28T00:47:18.539Z,-1.12
2023-02-28T00:48:20.546Z,-1.13
2023-02-28T00:49:19.063Z,-1.09
2023-02-28T00:50:19.830Z,-1.02
2023-02-28T00:51:19.782Z,-0.99
2023-02-28T00:52:19.505Z,-0.97
2023-02-28T00:53:19.668Z,-0.97
2023-02-28T00:54:18.465Z,-0.95
2023-02-28T00:55:19.553Z,-0.95
2023-02-28T00:56:18.493Z,-0.92
2023-02-28T00:57:18.537Z,-0.91
2023-02-28T00:58:18.436Z,-0.89
2023-02-28T00:59:18.433Z,-0.85
2023-02-28T01:00:18.412Z,-0.89
2023-02-28T01:01:18.429Z,-0.91
2023-02-28T01:02:18.378Z,-0.97
2023-02-28T01:03:18.373Z,-1.02
2023-02-28T01:04:18.382Z,-1.04
2023-02-28T01:05:18.362Z,-1.01
2023-02-28T01:06:18.347Z,-1.04
2023-02-28T01:07:18.337Z,-1.10
2023-02-28T01:08:18.324Z,-1.13
2023-02-28T01:09:18.299Z,-1.16
2023-02-28T01:10:18.328Z,-1.19
2023-02-28T01:11:18.316Z,-1.20
2023-02-28T01:12:18.278Z,-1.22
2023-02-28T01:13:18.266Z,-1.25
2023-02-28T01:14:18.257Z,-1.28
2023-02-28T01:15:18.245Z,-1.31
2023-02-28T01:16:18.258Z,-1.31
2023-02-28T01:17:18.232Z,-1.33
2023-02-28T01:18:18.217Z,-1.35
2023-02-28T01:19:18.212Z,-1.38
2023-02-28T01:20:18.196Z,-1.37
2023-02-28T01:21:18.188Z,-1.35
2023-02-28T01:22:18.182Z,-1.34
2023-02-28T01:23:18.154Z,-1.37
2023-02-28T01:24:18.175Z,-1.37
2023-02-28T01:25:18.182Z,-1.38
2023-02-28T01:26:18.158Z,-1.41
2023-02-28T01:27:18.108Z,-1.40
2023-02-28T01:28:18.116Z,-1.37
2023-02-28T01:29:18.101Z,-1.40
2023-02-28T01:30:18.087Z,-1.45
2023-02-28T01:31:18.223Z,-1.40
2023-02-28T01:32:18.078Z,-1.40
2023-02-28T01:33:18.049Z,-1.40
2023-02-28T01:34:18.046Z,-1.43
2023-02-28T01:35:18.027Z,-1.45
2023-02-28T01:36:18.034Z,-1.48
2023-02-28T01:37:18.007Z,-1.51
2023-02-28T01:38:22.911Z,-1.55
2023-02-28T01:39:18.985Z,-1.54
2023-02-28T01:40:18.027Z,-1.56
2023-02-28T01:41:17.993Z,-1.56
2023-02-28T01:42:17.973Z,-1.56
2023-02-28T01:43:17.945Z,-1.59
2023-02-28T01:44:17.934Z,-1.61
2023-02-28T01:45:17.922Z,-1.64
2023-02-28T01:46:17.964Z,-1.67
2023-02-28T01:47:17.903Z,-1.67
2023-02-28T01:48:17.900Z,-1.69
2023-02-28T01:49:17.874Z,-1.72
2023-02-28T01:50:17.902Z,-1.73
2023-02-28T01:51:17.862Z,-1.72
2023-02-28T01:52:17.853Z,-1.74
2023-02-28T01:53:17.844Z,-1.77
2023-02-28T01:54:17.832Z,-1.80
2023-02-28T01:55:17.812Z,-1.82
2023-02-28T01:56:17.851Z,-1.82
2023-02-28T01:57:17.790Z,-1.85
2023-02-28T01:58:17.791Z,-1.85
2023-02-28T01:59:17.778Z,-1.90
2023-02-28T02:00:17.774Z,-1.94
2023-02-28T02:01:17.856Z,-1.94
2023-02-28T02:02:17.772Z,-1.92
2023-02-28T02:03:17.729Z,-1.91
2023-02-28T02:04:17.721Z,-1.92
2023-02-28T02:05:17.709Z,-1.91
2023-02-28T02:06:17.710Z,-1.91
2023-02-28T02:07:17.692Z,-1.91
2023-02-28T02:08:17.820Z,-1.97
2023-02-28T02:09:17.672Z,-1.94
2023-02-28T02:10:17.679Z,-1.97
2023-02-28T02:11:17.660Z,-1.97
2023-02-28T02:12:17.629Z,-1.98
2023-02-28T02:13:17.630Z,-2.02
2023-02-28T02:14:17.610Z,-2.05
2023-02-28T02:15:17.600Z,-2.06
2023-02-28T02:16:17.622Z,-2.08
2023-02-28T02:17:17.590Z,-2.09
2023-02-28T02:18:17.571Z,-2.10
2023-02-28T02:19:17.579Z,-2.10
2023-02-28T02:20:17.634Z,-2.12
2023-02-28T02:21:17.560Z,-2.09
2023-02-28T02:22:17.531Z,-2.08
2023-02-28T02:23:17.523Z,-2.06
2023-02-28T02:24:17.520Z,-2.08
2023-02-28T02:25:17.509Z,-2.08
2023-02-28T02:26:17.510Z,-2.09
2023-02-28T02:27:17.479Z,-2.09
2023-02-28T02:28:17.472Z,-2.10
2023-02-28T02:29:17.561Z,-2.13
2023-02-28T02:30:18.663Z,-2.15
2023-02-28T02:31:17.617Z,-2.13
2023-02-28T02:32:17.538Z,-2.13
2023-02-28T02:33:17.422Z,-2.13
2023-02-28T02:34:17.421Z,-2.13
2023-02-28T02:35:17.391Z,-2.18
2023-02-28T02:36:17.420Z,-2.16
2023-02-28T02:37:17.409Z,-2.16
2023-02-28T02:38:17.368Z,-2.13
2023-02-28T02:39:17.359Z,-2.18
2023-02-28T02:40:17.369Z,-2.18
2023-02-28T02:41:17.480Z,-2.24
2023-02-28T02:42:17.321Z,-2.24
2023-02-28T02:43:17.314Z,-2.26
2023-02-28T02:44:17.299Z,-2.26
2023-02-28T02:45:17.288Z,-2.23
2023-02-28T02:46:17.374Z,-2.21
2023-02-28T02:47:17.270Z,-2.26
2023-02-28T02:48:17.249Z,-2.29
2023-02-28T02:49:17.289Z,-2.34
2023-02-28T02:50:17.328Z,-2.37
2023-02-28T02:51:17.245Z,-2.45
2023-02-28T02:52:17.212Z,-2.48
2023-02-28T02:53:17.211Z,-2.45
2023-02-28T02:54:17.235Z,-2.43
2023-02-28T02:55:17.190Z,-2.45
2023-02-28T02:56:17.199Z,-2.49
2023-02-28T02:57:17.179Z,-2.53
2023-02-28T02:58:17.161Z,-2.53
2023-02-28T02:59:17.150Z,-2.53
2023-02-28T03:00:17.159Z,-2.48
2023-02-28T03:01:17.198Z,-2.49
2023-02-28T03:02:17.113Z,-2.52
2023-02-28T03:03:17.099Z,-2.50
2023-02-28T03:04:17.091Z,-2.53
2023-02-28T03:05:17.090Z,-2.56
2023-02-28T03:06:17.102Z,-2.61
2023-02-28T03:07:17.057Z,-2.67
2023-02-28T03:08:17.094Z,-2.68
2023-02-28T03:09:17.038Z,-2.77
2023-02-28T03:10:17.022Z,-2.78
2023-02-28T03:11:17.033Z,-2.82
2023-02-28T03:12:17.001Z,-2.85
2023-02-28T03:13:17.007Z,-2.86
2023-02-28T03:14:17.032Z,-2.82
2023-02-28T03:15:16.979Z,-2.74
2023-02-28T03:16:17.026Z,-2.68
2023-02-28T03:17:16.961Z,-2.67
2023-02-28T03:18:16.941Z,-2.66
2023-02-28T03:19:16.940Z,-2.64
2023-02-28T03:20:16.933Z,-2.66
2023-02-28T03:21:16.937Z,-2.68
2023-02-28T03:22:16.903Z,-2.68
2023-02-28T03:23:16.891Z,-2.70
2023-02-28T03:24:16.886Z,-2.70
2023-02-28T03:25:16.872Z,-2.73
2023-02-28T03:26:16.873Z,-2.74
2023-02-28T03:27:16.854Z,-2.79
2023-02-28T03:28:16.847Z,-2.86
2023-02-28T03:29:16.851Z,-2.91
2023-02-28T03:30:16.830Z,-2.91
2023-02-28T03:31:16.905Z,-2.92
2023-02-28T03:32:16.929Z,-2.97
2023-02-28T03:33:16.793Z,-3.00
2023-02-28T03:34:16.774Z,-3.02
2023-02-28T03:35:16.826Z,-3.06
2023-02-28T03:36:16.795Z,-3.12
2023-02-28T03:37:16.799Z,-3.17
2023-02-28T03:38:16.736Z,-3.20
2023-02-28T03:39:16.725Z,-3.24
2023-02-28T03:40:16.716Z,-3.24
2023-02-28T03:41:16.714Z,-3.24
2023-02-28T03:42:16.761Z,-3.28
2023-02-28T03:43:16.712Z,-3.30
2023-02-28T03:44:16.681Z,-3.33
2023-02-28T03:45:16.664Z,-3.35
2023-02-28T03:46:16.907Z,-3.33
2023-02-28T03:47:16.666Z,-3.28
2023-02-28T03:48:16.686Z,-3.21
2023-02-28T03:49:16.732Z,-3.10
2023-02-28T03:50:16.664Z,-3.10
2023-02-28T03:51:16.723Z,-3.09
2023-02-28T03:52:16.629Z,-3.05
2023-02-28T03:53:16.621Z,-3.00
2023-02-28T03:54:16.567Z,-2.99
2023-02-28T03:55:16.568Z,-3.00
2023-02-28T03:56:16.596Z,-3.05
2023-02-28T03:57:16.561Z,-3.02
2023-02-28T03:58:16.571Z,-2.96
2023-02-28T03:59:16.533Z,-2.94
2023-02-28T04:00:16.525Z,-2.92
2023-02-28T04:01:16.688Z,-2.92
2023-02-28T04:02:16.730Z,-2.92
2023-02-28T04:03:16.503Z,-2.89
2023-02-28T04:04:16.526Z,-2.81
2023-02-28T04:05:16.515Z,-2.71
2023-02-28T04:06:16.505Z,-2.66
2023-02-28T04:07:16.934Z,-2.64
2023-02-28T04:08:16.453Z,-2.64
2023-02-28T04:09:17.444Z,-2.70
2023-02-28T04:10:16.416Z,-2.68
2023-02-28T04:11:16.400Z,-2.64
2023-02-28T04:12:16.392Z,-2.56
2023-02-28T04:13:16.374Z,-2.52
2023-02-28T04:14:16.384Z,-2.55
2023-02-28T04:15:16.364Z,-2.58
2023-02-28T04:16:32.128Z,-2.63
2023-02-28T04:17:17.333Z,-2.67
2023-02-28T04:18:16.332Z,-2.74
2023-02-28T04:19:16.329Z,-2.78
2023-02-28T04:20:16.312Z,-2.84
2023-02-28T04:21:16.294Z,-2.89
2023-02-28T04:22:16.303Z,-2.96
2023-02-28T04:23:16.276Z,-2.99
2023-02-28T04:24:16.261Z,-3.00
2023-02-28T04:25:16.245Z,-2.97
2023-02-28T04:26:16.236Z,-2.97
2023-02-28T04:27:16.232Z,-3.00
2023-02-28T04:28:16.222Z,-2.99
2023-02-28T04:29:16.265Z,-3.00
2023-02-28T04:30:16.303Z,-3.00
2023-02-28T04:31:16.203Z,-3.02
2023-02-28T04:32:16.443Z,-3.06
2023-02-28T04:33:16.184Z,-3.09
2023-02-28T04:34:16.174Z,-3.09
2023-02-28T04:35:16.213Z,-3.06
2023-02-28T04:36:16.144Z,-3.05
2023-02-28T04:37:16.143Z,-3.06
2023-02-28T04:38:16.114Z,-3.07
2023-02-28T04:39:16.095Z,-3.12
2023-02-28T04:40:16.093Z,-3.14
2023-02-28T04:41:16.076Z,-3.18
2023-02-28T04:42:16.074Z,-3.21
2023-02-28T04:43:16.053Z,-3.21
2023-02-28T04:44:16.052Z,-3.23
2023-02-28T04:45:16.041Z,-3.25
2023-02-28T04:46:16.069Z,-3.28
2023-02-28T04:47:16.032Z,-3.35
2023-02-28T04:48:16.040Z,-3.35
2023-02-28T04:49:15.992Z,-3.41
2023-02-28T04:50:16.005Z,-3.43
2023-02-28T04:51:15.968Z,-3.43
2023-02-28T04:52:16.124Z,-3.43
2023-02-28T04:53:15.949Z,-3.42
2023-02-28T04:54:15.944Z,-3.38
2023-02-28T04:55:15.981Z,-3.36
2023-02-28T04:56:16.032Z,-3.35
2023-02-28T04:57:15.917Z,-3.35
2023-02-28T04:58:15.908Z,-3.38
2023-02-28T04:59:15.891Z,-3.41
2023-02-28T05:00:15.887Z,-3.38
2023-02-28T05:01:15.873Z,-3.36
2023-02-28T05:02:15.947Z,-3.39
2023-02-28T05:03:15.857Z,-3.42
2023-02-28T05:04:15.884Z,-3.43
2023-02-28T05:05:15.826Z,-3.43
2023-02-28T05:06:15.816Z,-3.48
2023-02-28T05:07:15.824Z,-3.52
2023-02-28T05:08:15.836Z,-3.53
2023-02-28T05:09:15.778Z,-3.57
2023-02-28T05:10:15.790Z,-3.57
2023-02-28T05:11:15.765Z,-3.54
2023-02-28T05:12:15.807Z,-3.53
2023-02-28T05:13:15.747Z,-3.54
2023-02-28T05:14:15.777Z,-3.53
2023-02-28T05:15:15.721Z,-3.36
2023-02-28T05:16:15.739Z,-3.23
2023-02-28T05:17:15.719Z,-3.25
2023-02-28T05:18:15.687Z,-3.25
2023-02-28T05:19:15.957Z,-3.24
2023-02-28T05:20:16.354Z,-3.23
2023-02-28T05:21:15.665Z,-3.17
2023-02-28T05:22:15.750Z,-3.18
2023-02-28T05:23:15.636Z,-3.20
2023-02-28T05:24:15.676Z,-3.23
2023-02-28T05:25:15.623Z,-3.23
2023-02-28T05:26:15.607Z,-3.24
2023-02-28T05:27:15.608Z,-3.21
2023-02-28T05:28:15.640Z,-3.21
2023-02-28T05:29:15.587Z,-3.17
2023-02-28T05:30:15.605Z,-3.17
2023-02-28T05:31:15.557Z,-3.17
2023-02-28T05:32:15.642Z,-3.10
2023-02-28T05:33:15.679Z,-3.10
2023-02-28T05:34:15.524Z,-3.05
2023-02-28T05:35:15.521Z,-3.05
2023-02-28T05:36:15.536Z,-3.06
2023-02-28T05:37:15.499Z,-3.07
2023-02-28T05:38:15.628Z,-3.10
2023-02-28T05:39:15.465Z,-3.12
2023-02-28T05:40:15.596Z,-3.09
2023-02-28T05:41:15.467Z,-3.07
2023-02-28T05:42:15.720Z,-3.09
2023-02-28T05:43:15.435Z,-3.12
2023-02-28T05:44:15.415Z,-3.14
2023-02-28T05:45:15.900Z,-3.15
2023-02-28T05:46:15.418Z,-3.18
2023-02-28T05:47:15.437Z,-3.17
2023-02-28T05:48:15.458Z,-3.18
2023-02-28T05:49:15.365Z,-3.18
2023-02-28T05:50:15.383Z,-3.21
2023-02-28T05:51:15.343Z,-3.17
2023-02-28T05:52:15.352Z,-3.12
2023-02-28T05:53:15.325Z,-3.15
2023-02-28T05:54:15.327Z,-3.18
2023-02-28T05:55:15.317Z,-3.18
2023-02-28T05:56:15.291Z,-3.21
2023-02-28T05:57:22.883Z,-3.21
2023-02-28T05:58:16.409Z,-3.18
2023-02-28T05:59:15.302Z,-3.18
2023-02-28T06:00:15.377Z,-3.20
2023-02-28T06:01:15.248Z,-3.21
2023-02-28T06:02:15.369Z,-3.24
2023-02-28T06:03:15.266Z,-3.21
2023-02-28T06:04:30.373Z,-3.18
2023-02-28T06:05:16.207Z,-3.21
2023-02-28T06:06:15.193Z,-3.20
2023-02-28T06:07:15.196Z,-3.23
2023-02-28T06:08:15.170Z,-3.24
2023-02-28T06:09:15.168Z,-3.25
2023-02-28T06:10:15.168Z,-3.25
2023-02-28T06:11:15.141Z,-3.30
2023-02-28T06:12:15.226Z,-3.33
2023-02-28T06:13:15.128Z,-3.35
2023-02-28T06:14:15.157Z,-3.33
2023-02-28T06:15:15.146Z,-3.33
2023-02-28T06:16:15.240Z,-3.31
2023-02-28T06:17:15.100Z,-3.33
2023-02-28T06:18:15.079Z,-3.35
2023-02-28T06:19:15.109Z,-3.35
2023-02-28T06:20:15.069Z,-3.31
2023-02-28T06:21:15.101Z,-3.28
2023-02-28T06:22:15.039Z,-3.17
2023-02-28T06:23:15.018Z,-3.07
2023-02-28T06:24:15.058Z,-2.99
2023-02-28T06:25:15.001Z,-2.97
2023-02-28T06:26:15.031Z,-3.02
2023-02-28T06:27:14.980Z,-2.96
2023-02-28T06:28:14.990Z,-2.91
2023-02-28T06:29:14.952Z,-2.89
2023-02-28T06:30:15.113Z,-2.78
2023-02-28T06:31:14.983Z,-2.78
2023-02-28T06:32:14.977Z,-2.78
2023-02-28T06:33:14.919Z,-2.79
2023-02-28T06:34:15.273Z,-2.82
2023-02-28T06:35:14.895Z,-2.88
2023-02-28T06:36:14.890Z,-2.89
2023-02-28T06:37:14.891Z,-2.91
2023-02-28T06:38:14.901Z,-2.94
2023-02-28T06:39:14.855Z,-2.92
2023-02-28T06:40:14.855Z,-2.91
2023-02-28T06:41:14.831Z,-2.94
2023-02-28T06:42:15.099Z,-2.97
2023-02-28T06:43:14.839Z,-2.99
2023-02-28T06:44:14.804Z,-2.97
2023-02-28T06:45:14.789Z,-2.94
2023-02-28T06:46:14.931Z,-2.97
2023-02-28T06:47:14.773Z,-2.99
2023-02-28T06:48:14.765Z,-3.03
2023-02-28T06:49:14.742Z,-3.05
2023-02-28T06:50:14.803Z,-3.07
2023-02-28T06:51:14.725Z,-3.09
2023-02-28T06:52:14.822Z,-3.10
2023-02-28T06:53:14.711Z,-3.07
2023-02-28T06:54:14.743Z,-3.03
2023-02-28T06:55:14.683Z,-3.00
2023-02-28T06:56:14.711Z,-2.99
2023-02-28T06:57:14.666Z,-2.96
2023-02-28T06:58:14.776Z,-2.99
2023-02-28T06:59:14.644Z,-2.97
2023-02-28T07:00:14.783Z,-2.96
2023-02-28T07:01:14.684Z,-2.92
2023-02-28T07:02:14.621Z,-2.92
2023-02-28T07:03:14.604Z,-2.92
2023-02-28T07:04:14.683Z,-2.82
2023-02-28T07:05:14.585Z,-2.79
2023-02-28T07:06:14.578Z,-2.71
2023-02-28T07:07:14.564Z,-2.64
2023-02-28T07:08:14.697Z,-2.60
2023-02-28T07:09:14.689Z,-2.53
2023-02-28T07:10:14.636Z,-2.40
2023-02-28T07:11:14.516Z,-2.35
2023-02-28T07:12:14.569Z,-2.32
2023-02-28T07:13:14.498Z,-2.26
2023-02-28T07:14:14.488Z,-2.16
2023-02-28T07:15:14.514Z,-2.02
2023-02-28T07:16:14.573Z,-1.94
2023-02-28T07:17:14.506Z,-1.82
2023-02-28T07:18:14.707Z,-1.74
2023-02-28T07:19:14.425Z,-1.70
2023-02-28T07:20:14.635Z,-1.64
2023-02-28T07:21:14.400Z,-1.59
2023-02-28T07:22:15.974Z,-1.49
2023-02-28T07:23:14.445Z,-1.37
2023-02-28T07:24:14.404Z,-1.30
2023-02-28T07:25:14.423Z,-1.22
2023-02-28T07:26:14.403Z,-1.15
2023-02-28T07:27:14.345Z,-1.09
2023-02-28T07:28:14.346Z,-1.01
2023-02-28T07:29:14.332Z,-0.92
2023-02-28T07:30:14.348Z,-0.82
2023-02-28T07:31:14.347Z,-0.75
2023-02-28T07:32:14.626Z,-0.64
2023-02-28T07:33:14.275Z,-0.58
2023-02-28T07:34:14.275Z,-0.52
2023-02-28T07:35:14.277Z,-0.44
2023-02-28T07:36:14.314Z,-0.39
2023-02-28T07:37:14.385Z,-0.31
2023-02-28T07:38:14.255Z,-0.26
2023-02-28T07:39:14.227Z,-0.19
2023-02-28T07:40:14.247Z,-0.11
2023-02-28T07:41:14.248Z,-0.04
2023-02-28T07:42:14.228Z,0.03
2023-02-28T07:43:14.184Z,0.10
2023-02-28T07:44:14.172Z,0.14
2023-02-28T07:45:14.169Z,0.24
2023-02-28T07:46:14.237Z,0.31
2023-02-28T07:47:14.644Z,0.33
2023-02-28T07:48:15.471Z,0.41
2023-02-28T07:49:14.293Z,0.51
2023-02-28T07:50:14.504Z,0.58
2023-02-28T07:51:14.885Z,0.65
2023-02-28T07:52:15.380Z,0.75
2023-02-28T07:53:16.364Z,0.84
2023-02-28T07:54:14.975Z,0.91
2023-02-28T07:55:16.522Z,0.98
2023-02-28T07:56:16.759Z,1.08
2023-02-28T07:57:14.053Z,1.12
2023-02-28T07:58:14.601Z,1.16
2023-02-28T07:59:14.064Z,1.23
2023-02-28T08:00:14.151Z,1.29
2023-02-28T08:01:13.994Z,1.33
2023-02-28T08:02:14.115Z,1.34
2023-02-28T08:03:14.406Z,1.34
2023-02-28T08:04:14.205Z,1.34
2023-02-28T08:05:14.956Z,1.36
2023-02-28T08:06:14.191Z,1.33
2023-02-28T08:07:14.303Z,1.32
2023-02-28T08:08:14.338Z,1.29
2023-02-28T08:09:13.928Z,1.26
2023-02-28T08:10:14.368Z,1.26
2023-02-28T08:11:13.933Z,1.23
2023-02-28T08:12:13.883Z,1.23
2023-02-28T08:13:14.499Z,1.23
2023-02-28T08:14:13.877Z,1.22
2023-02-28T08:15:14.037Z,1.22
2023-02-28T08:16:13.880Z,1.23
2023-02-28T08:17:13.835Z,1.24
2023-02-28T08:18:13.844Z,1.26
2023-02-28T08:19:13.794Z,1.27
2023-02-28T08:20:13.776Z,1.26
2023-02-28T08:21:13.902Z,1.32
2023-02-28T08:22:13.865Z,1.30
2023-02-28T08:23:14.879Z,1.32
2023-02-28T08:24:13.743Z,1.34
2023-02-28T08:25:13.853Z,1.34
2023-02-28T08:26:13.806Z,1.37
2023-02-28T08:27:13.711Z,1.44
2023-02-28T08:28:13.985Z,1.45
2023-02-28T08:29:13.767Z,1.50
2023-02-28T08:30:14.351Z,1.55
2023-02-28T08:31:14.134Z,1.58
2023-02-28T08:32:28.987Z,1.55
2023-02-28T08:33:14.772Z,1.51
2023-02-28T08:34:14.198Z,1.48
2023-02-28T08:35:13.618Z,1.48
2023-02-28T08:36:13.669Z,1.51
2023-02-28T08:37:13.619Z,1.55
2023-02-28T08:38:13.731Z,1.63
2023-02-28T08:39:13.603Z,1.68
2023-02-28T08:40:13.796Z,1.72
2023-02-28T08:41:14.369Z,1.81
2023-02-28T08:42:13.556Z,1.83
2023-02-28T08:43:13.536Z,1.86
2023-02-28T08:44:14.218Z,1.87
2023-02-28T08:45:13.654Z,1.91
2023-02-28T08:46:13.768Z,1.93
2023-02-28T08:47:13.504Z,1.93
2023-02-28T08:48:13.525Z,1.95
2023-02-28T08:49:13.596Z,1.98
2023-02-28T08:50:14.123Z,1.99
2023-02-28T08:51:13.466Z,2.02
2023-02-28T08:52:13.483Z,2.02
2023-02-28T08:53:13.441Z,2.03
2023-02-28T08:54:13.598Z,2.06
2023-02-28T08:55:13.421Z,2.07
2023-02-28T08:56:14.178Z,2.14
2023-02-28T08:57:13.533Z,2.16
2023-02-28T08:58:13.430Z,2.17
2023-02-28T08:59:13.489Z,2.23
2023-02-28T09:00:13.390Z,2.23
2023-02-28T09:01:13.396Z,2.25
2023-02-28T09:02:13.349Z,2.28
2023-02-28T09:03:13.381Z,2.35
2023-02-28T09:04:14.588Z,2.39
2023-02-28T09:05:13.517Z,2.43
2023-02-28T09:06:13.443Z,2.46
2023-02-28T09:07:13.290Z,2.48
2023-02-28T09:08:13.383Z,2.48
2023-02-28T09:09:14.072Z,2.54
2023-02-28T09:10:14.069Z,2.57
2023-02-28T09:11:13.552Z,2.61
2023-02-28T09:12:13.327Z,2.63
2023-02-28T09:13:13.288Z,2.67
2023-02-28T09:14:16.550Z,2.69
2023-02-28T09:15:13.181Z,2.69
2023-02-28T09:16:13.242Z,2.67
2023-02-28T09:17:13.196Z,2.66
2023-02-28T09:18:13.281Z,2.69
2023-02-28T09:19:13.754Z,2.77
2023-02-28T09:20:13.372Z,2.77
2023-02-28T09:21:13.284Z,2.78
2023-02-28T09:22:13.131Z,2.82
2023-02-28T09:23:13.191Z,2.82
2023-02-28T09:24:13.297Z,2.79
2023-02-28T09:25:13.687Z,2.84
2023-02-28T09:26:13.094Z,2.85
2023-02-28T09:27:13.062Z,2.89
2023-02-28T09:28:13.265Z,2.93
2023-02-28T09:29:13.048Z,2.93
2023-02-28T09:30:13.092Z,2.95
2023-02-28T09:31:14.310Z,2.95
2023-02-28T09:32:14.530Z,2.92
2023-02-28T09:33:13.831Z,2.92
2023-02-28T09:34:13.926Z,2.93
2023-02-28T09:35:13.017Z,3.00
2023-02-28T09:36:13.046Z,2.99
2023-02-28T09:37:12.992Z,2.99
2023-02-28T09:38:12.957Z,3.03
2023-02-28T09:39:12.929Z,3.06
2023-02-28T09:40:13.563Z,3.08
2023-02-28T09:41:13.056Z,3.14
2023-02-28T09:42:12.907Z,3.17
2023-02-28T09:43:12.886Z,3.24
2023-02-28T09:44:13.442Z,3.29
2023-02-28T09:45:12.868Z,3.28
2023-02-28T09:46:13.725Z,3.26
2023-02-28T09:47:12.859Z,3.32
2023-02-28T09:48:12.819Z,3.42
2023-02-28T09:49:12.838Z,3.51
2023-02-28T09:50:13.131Z,3.47
2023-02-28T09:51:13.185Z,3.50
2023-02-28T09:52:14.237Z,3.55
2023-02-28T09:53:12.868Z,3.58
2023-02-28T09:54:13.930Z,3.62
2023-02-28T09:55:13.711Z,3.65
2023-02-28T09:56:12.795Z,3.75
2023-02-28T09:57:12.735Z,3.88
2023-02-28T09:58:12.713Z,3.90
2023-02-28T09:59:13.094Z,3.94
2023-02-28T10:00:12.946Z,3.98
2023-02-28T10:01:13.744Z,4.08
2023-02-28T10:02:13.552Z,4.22
2023-02-28T10:03:12.658Z,4.26
2023-02-28T10:04:13.212Z,4.34
2023-02-28T10:05:13.629Z,4.45
2023-02-28T10:06:14.587Z,4.48
2023-02-28T10:07:13.573Z,4.54
2023-02-28T10:08:13.329Z,4.50
2023-02-28T10:09:12.602Z,4.58
2023-02-28T10:10:13.103Z,4.60
2023-02-28T10:11:13.035Z,4.67
2023-02-28T10:12:13.084Z,4.72
2023-02-28T10:13:12.561Z,4.73
2023-02-28T10:14:13.131Z,4.85
2023-02-28T10:15:13.857Z,4.88
2023-02-28T10:16:13.333Z,4.92
2023-02-28T10:17:12.533Z,5.02
2023-02-28T10:18:13.853Z,5.10
2023-02-28T10:19:12.692Z,5.09
2023-02-28T10:20:13.502Z,5.02
2023-02-28T10:21:12.889Z,4.88
2023-02-28T10:22:14.300Z,4.99
2023-02-28T10:23:12.442Z,5.04
2023-02-28T10:25:12.646Z,4.97
2023-02-28T10:26:12.504Z,5.04
2023-02-28T10:27:12.954Z,5.18
2023-02-28T10:28:12.562Z,5.25
2023-02-28T10:29:14.529Z,5.12
2023-02-28T10:30:12.366Z,5.21
2023-02-28T10:31:13.217Z,5.36
2023-02-28T10:32:12.369Z,5.46
2023-02-28T10:33:12.346Z,5.51
2023-02-28T10:34:12.551Z,5.40
2023-02-28T10:35:12.490Z,5.49
2023-02-28T10:36:12.323Z,5.57
2023-02-28T10:37:15.357Z,5.72
2023-02-28T10:38:12.682Z,5.79
2023-02-28T10:39:12.260Z,5.91
2023-02-28T10:40:14.762Z,5.97
2023-02-28T10:41:12.402Z,5.89
2023-02-28T10:42:14.701Z,5.90
2023-02-28T10:43:12.568Z,5.94
2023-02-28T10:44:12.498Z,6.04
2023-02-28T10:45:12.194Z,6.09
2023-02-28T10:46:13.383Z,6.06
2023-02-28T10:47:12.224Z,6.12
2023-02-28T10:48:12.236Z,6.12
2023-02-28T10:49:13.250Z,6.17
2023-02-28T10:50:12.145Z,6.18
2023-02-28T10:51:12.214Z,6.09
2023-02-28T10:52:13.244Z,5.91
2023-02-28T10:53:12.697Z,5.97
2023-02-28T10:54:12.675Z,6.04
2023-02-28T10:55:13.661Z,6.27
2023-02-28T10:56:13.460Z,6.41
2023-02-28T10:57:12.688Z,6.44
2023-02-28T10:58:12.097Z,6.40
2023-02-28T10:59:14.087Z,6.22
2023-02-28T11:00:12.039Z,6.25
2023-02-28T11:01:12.087Z,6.15
2023-02-28T11:02:12.059Z,6.14
2023-02-28T11:03:12.997Z,6.04
2023-02-28T11:04:11.993Z,6.15
2023-02-28T11:05:13.047Z,6.33
2023-02-28T11:06:13.529Z,6.41
2023-02-28T11:07:12.664Z,6.56
2023-02-28T11:08:13.644Z,6.70
2023-02-28T11:09:11.921Z,6.66
2023-02-28T11:10:13.599Z,6.66
2023-02-28T11:11:11.909Z,6.62
2023-02-28T11:12:11.961Z,6.69
2023-02-28T11:13:11.887Z,6.73
2023-02-28T11:14:12.499Z,6.79
2023-02-28T11:15:11.860Z,6.79
2023-02-28T11:16:11.911Z,6.81
2023-02-28T11:17:12.007Z,6.70
2023-02-28T11:18:11.885Z,6.73
2023-02-28T11:19:12.003Z,6.89
2023-02-28T11:20:11.897Z,6.92
2023-02-28T11:21:11.794Z,6.84
2023-02-28T11:22:12.358Z,6.73
2023-02-28T11:23:11.822Z,6.70
2023-02-28T11:24:11.824Z,6.56
2023-02-28T11:25:11.763Z,6.54
2023-02-28T11:26:12.030Z,6.38
2023-02-28T11:27:11.757Z,6.40
2023-02-28T11:28:11.736Z,6.49
2023-02-28T11:29:12.041Z,6.59
2023-02-28T11:30:12.265Z,6.70
2023-02-28T11:31:12.355Z,6.70
2023-02-28T11:32:11.798Z,6.67
2023-02-28T11:33:11.701Z,6.66
2023-02-28T11:34:11.765Z,6.41
2023-02-28T11:35:12.443Z,6.49
2023-02-28T11:36:12.431Z,6.51
2023-02-28T11:37:11.658Z,6.51
2023-02-28T11:38:11.949Z,6.49
2023-02-28T11:39:11.603Z,6.66
2023-02-28T11:40:12.681Z,6.56
2023-02-28T11:41:12.214Z,6.70
2023-02-28T11:42:12.327Z,6.85
2023-02-28T11:43:11.570Z,6.94
2023-02-28T11:44:11.675Z,6.87
2023-02-28T11:45:11.779Z,6.71
2023-02-28T11:46:11.539Z,6.80
2023-02-28T11:47:11.874Z,6.99
2023-02-28T11:48:12.046Z,7.15
2023-02-28T11:49:11.553Z,7.15
2023-02-28T11:50:11.645Z,7.20
2023-02-28T11:51:11.476Z,7.12
2023-02-28T11:52:11.566Z,7.07
2023-02-28T11:53:11.456Z,7.15
2023-02-28T11:54:11.497Z,7.27
2023-02-28T11:55:11.439Z,7.37
2023-02-28T11:56:11.428Z,7.43
2023-02-28T11:57:11.424Z,7.32
2023-02-28T11:58:11.424Z,7.31
2023-02-28T11:59:11.407Z,7.17
2023-02-28T12:00:11.445Z,7.30
2023-02-28T12:01:11.431Z,7.34
2023-02-28T12:02:11.404Z,7.34
2023-02-28T12:03:11.397Z,7.34
2023-02-28T12:04:11.359Z,7.28
2023-02-28T12:05:11.331Z,7.24
2023-02-28T12:06:11.333Z,7.30
2023-02-28T12:07:11.365Z,7.34
2023-02-28T12:08:11.294Z,7.43
2023-02-28T12:09:11.293Z,7.61
2023-02-28T12:10:11.289Z,7.58
2023-02-28T12:11:11.274Z,7.43
2023-02-28T12:12:11.275Z,7.37
2023-02-28T12:13:11.268Z,7.35
2023-02-28T12:14:11.260Z,7.46
2023-02-28T12:15:11.240Z,7.55
2023-02-28T12:16:11.243Z,7.52
2023-02-28T12:17:11.238Z,7.46
2023-02-28T12:18:11.229Z,7.40
2023-02-28T12:19:11.191Z,7.48
2023-02-28T12:20:11.189Z,7.61
2023-02-28T12:21:11.172Z,7.58
2023-02-28T12:22:11.181Z,7.40
2023-02-28T12:23:11.147Z,7.24
2023-02-28T12:24:11.210Z,7.21
2023-02-28T12:25:11.365Z,7.27
2023-02-28T12:26:12.622Z,7.40
2023-02-28T12:27:11.116Z,7.43
2023-02-28T12:28:13.204Z,7.46
2023-02-28T12:29:11.101Z,7.55
2023-02-28T12:30:11.116Z,7.49
2023-02-28T12:31:11.175Z,7.53
2023-02-28T12:32:11.894Z,7.55
2023-02-28T12:33:11.280Z,7.60
2023-02-28T12:34:11.018Z,7.61
2023-02-28T12:35:12.032Z,7.52
2023-02-28T12:36:12.782Z,7.52
2023-02-28T12:37:11.561Z,7.71
2023-02-28T12:38:11.010Z,7.82
2023-02-28T12:39:11.372Z,7.79
2023-02-28T12:40:11.560Z,7.89
2023-02-28T12:41:10.955Z,7.92
2023-02-28T12:42:11.080Z,7.92
2023-02-28T12:43:11.789Z,7.92
2023-02-28T12:44:10.911Z,7.92
2023-02-28T12:45:11.467Z,7.87
2023-02-28T12:46:10.952Z,7.85
2023-02-28T12:47:11.087Z,7.89
2023-02-28T12:48:11.578Z,7.92
2023-02-28T12:49:10.864Z,7.98
2023-02-28T12:50:13.292Z,7.90
2023-02-28T12:51:10.832Z,7.89
2023-02-28T12:52:10.853Z,7.89
2023-02-28T12:53:10.816Z,7.89
2023-02-28T12:54:10.849Z,8.00
2023-02-28T12:55:10.803Z,7.83
2023-02-28T12:56:10.854Z,7.79
2023-02-28T12:57:10.795Z,7.83
2023-02-28T12:58:10.775Z,7.87
2023-02-28T12:59:10.794Z,7.95
2023-02-28T13:00:10.753Z,8.00
2023-02-28T13:01:10.786Z,7.86
2023-02-28T13:02:10.825Z,7.90
2023-02-28T13:03:10.704Z,7.93
2023-02-28T13:04:10.705Z,7.90